createdAt,value
2022-08-03T00:00:17.735Z,59.74
2022-08-03T00:03:10.384Z,59.78
2022-08-03T00:06:05.109Z,57.87
2022-08-03T00:08:58.432Z,58.14
2022-08-03T00:11:50.840Z,59.85
2022-08-03T00:14:44.454Z,64.57
2022-08-03T00:17:52.341Z,65.18
2022-08-03T00:20:46.085Z,63.51
2022-08-03T00:23:51.837Z,62.38
2022-08-03T00:26:47.352Z,61.58
2022-08-03T00:29:59.488Z,61.13
2022-08-03T00:32:54.926Z,61.06
2022-08-03T00:35:51.041Z,60.75
2022-08-03T00:38:43.380Z,60.56
2022-08-03T00:41:35.672Z,60.18
2022-08-03T00:44:27.909Z,59.79
2022-08-03T00:47:20.043Z,57.72
2022-08-03T00:50:13.860Z,57.88
2022-08-03T00:53:07.942Z,59.52
2022-08-03T00:56:01.431Z,64.62
2022-08-03T00:58:58.146Z,65.62
2022-08-03T01:01:50.394Z,64.34
2022-08-03T01:04:42.887Z,63.24
2022-08-03T01:07:47.335Z,62.80
2022-08-03T01:10:50.202Z,62.57
2022-08-03T01:14:04.288Z,62.11
2022-08-03T01:17:03.580Z,62.09
2022-08-03T01:19:55.625Z,61.98
2022-08-03T01:23:11.944Z,61.74
2022-08-03T01:26:07.393Z,61.45
2022-08-03T01:29:10.952Z,61.25
2022-08-03T01:32:53.556Z,61.08
2022-08-03T01:35:27.954Z,61.08
2022-08-03T01:38:25.798Z,60.97
2022-08-03T01:41:22.655Z,60.86
2022-08-03T01:44:29.827Z,60.72
2022-08-03T01:47:23.531Z,60.77
2022-08-03T01:50:17.012Z,60.81
2022-08-03T01:53:14.884Z,60.68
2022-08-03T01:56:09.979Z,60.55
2022-08-03T01:59:04.568Z,60.47
2022-08-03T02:02:27.740Z,60.48
2022-08-03T02:05:13.166Z,60.48
2022-08-03T02:08:08.967Z,60.36
2022-08-03T02:11:03.491Z,60.22
2022-08-03T02:13:57.882Z,60.21
2022-08-03T02:16:44.582Z,60.15
2022-08-03T02:19:38.048Z,60.08
2022-08-03T02:22:26.183Z,59.97
2022-08-03T02:25:19.608Z,59.72
2022-08-03T02:28:18.654Z,57.70
2022-08-03T02:31:19.188Z,57.18
2022-08-03T02:34:17.796Z,59.12
2022-08-03T02:37:11.842Z,64.71
2022-08-03T02:40:09.128Z,65.33
2022-08-03T02:43:06.568Z,63.80
2022-08-03T02:45:58.943Z,62.68
2022-08-03T02:48:53.322Z,62.17
2022-08-03T02:51:48.589Z,61.73
2022-08-03T02:54:41.872Z,61.34
2022-08-03T02:57:36.347Z,60.86
2022-08-03T03:00:28.054Z,60.68
2022-08-03T03:03:22.030Z,60.92
2022-08-03T03:06:15.238Z,60.38
2022-08-03T03:09:07.896Z,59.94
2022-08-03T03:12:00.710Z,59.75
2022-08-03T03:14:53.038Z,57.82
2022-08-03T03:17:46.695Z,57.88
2022-08-03T03:20:42.403Z,59.61
2022-08-03T03:23:36.499Z,64.36
2022-08-03T03:26:29.172Z,65.12
2022-08-03T03:29:22.343Z,63.86
2022-08-03T03:31:54.636Z,62.95
2022-08-03T03:34:47.531Z,62.53
2022-08-03T03:37:40.213Z,61.94
2022-08-03T03:40:32.653Z,61.50
2022-08-03T03:43:26.227Z,61.01
2022-08-03T03:46:18.530Z,60.49
2022-08-03T03:49:11.782Z,59.94
2022-08-03T03:52:04.481Z,59.72
2022-08-03T03:55:00.829Z,57.96
2022-08-03T03:57:53.621Z,57.88
2022-08-03T04:00:46.561Z,59.61
2022-08-03T04:03:39.766Z,64.75
2022-08-03T04:07:04.608Z,65.37
2022-08-03T04:10:16.433Z,63.75
2022-08-03T04:13:11.135Z,62.65
2022-08-03T04:16:04.622Z,61.90
2022-08-03T04:19:03.191Z,60.99
2022-08-03T04:22:00.069Z,60.35
2022-08-03T04:24:56.810Z,60.48
2022-08-03T04:28:19.700Z,60.56
2022-08-03T04:31:09.560Z,60.71
2022-08-03T04:34:03.191Z,60.41
2022-08-03T04:37:01.175Z,59.96
2022-08-03T04:39:51.253Z,57.84
2022-08-03T04:42:45.469Z,57.61
2022-08-03T04:45:40.071Z,59.21
2022-08-03T04:48:32.552Z,64.81
2022-08-03T04:51:28.091Z,65.56
2022-08-03T04:54:16.231Z,64.02
2022-08-03T04:57:08.390Z,63.09
2022-08-03T05:00:04.272Z,62.22
2022-08-03T05:02:56.906Z,61.47
2022-08-03T05:05:50.926Z,60.89
2022-08-03T05:08:46.915Z,60.49
2022-08-03T05:11:41.753Z,60.15
2022-08-03T05:14:34.062Z,59.81
2022-08-03T05:17:26.948Z,57.92
2022-08-03T05:20:19.262Z,57.82
2022-08-03T05:23:11.605Z,58.93
2022-08-03T05:26:04.132Z,63.35
2022-08-03T05:28:56.405Z,64.26
2022-08-03T05:31:48.493Z,62.73
2022-08-03T05:34:40.958Z,61.34
2022-08-03T05:37:32.977Z,60.73
2022-08-03T05:40:25.513Z,60.42
2022-08-03T05:43:19.336Z,60.76
2022-08-03T05:46:13.179Z,61.12
2022-08-03T05:48:54.618Z,61.55
2022-08-03T05:51:47.527Z,61.53
2022-08-03T05:54:56.897Z,61.41
2022-08-03T05:57:50.197Z,61.41
2022-08-03T06:00:42.228Z,61.05
2022-08-03T06:03:34.242Z,60.28
2022-08-03T06:06:30.501Z,59.52
2022-08-03T06:09:24.318Z,57.39
2022-08-03T06:12:36.674Z,57.30
2022-08-03T06:15:28.910Z,58.93
2022-08-03T06:18:21.351Z,63.26
2022-08-03T06:21:15.198Z,63.67
2022-08-03T06:24:00.608Z,61.67
2022-08-03T06:26:55.013Z,60.27
2022-08-03T06:29:47.330Z,57.19
2022-08-03T06:32:39.789Z,56.19
2022-08-03T06:35:32.114Z,56.81
2022-08-03T06:38:27.129Z,57.76
2022-08-03T06:41:20.683Z,58.61
2022-08-03T06:44:05.768Z,59.41
2022-08-03T06:46:58.883Z,59.75
2022-08-03T06:50:14.295Z,60.65
2022-08-03T06:53:04.430Z,60.39
2022-08-03T06:55:56.975Z,64.46
2022-08-03T06:58:49.977Z,63.85
2022-08-03T07:01:42.275Z,61.23
2022-08-03T07:04:34.843Z,58.59
2022-08-03T07:07:20.824Z,56.97
2022-08-03T07:10:13.728Z,57.04
2022-08-03T07:12:59.908Z,57.82
2022-08-03T07:15:55.363Z,58.75
2022-08-03T07:18:49.309Z,59.11
2022-08-03T07:21:41.931Z,59.35
2022-08-03T07:24:34.086Z,59.68
2022-08-03T07:27:30.614Z,60.50
2022-08-03T07:30:22.815Z,60.29
2022-08-03T07:33:16.612Z,60.45
2022-08-03T07:36:00.763Z,60.03
2022-08-03T07:38:53.027Z,60.15
2022-08-03T07:41:44.041Z,60.89
2022-08-03T07:44:36.354Z,63.26
2022-08-03T07:47:34.942Z,60.07
2022-08-03T07:50:28.534Z,56.05
2022-08-03T07:53:20.589Z,57.27
2022-08-03T07:56:13.921Z,56.46
2022-08-03T07:59:06.282Z,58.64
2022-08-03T08:01:58.572Z,57.18
2022-08-03T08:04:51.028Z,56.92
2022-08-03T08:07:43.473Z,57.68
2022-08-03T08:10:37.944Z,58.64
2022-08-03T08:13:22.508Z,57.74
2022-08-03T08:15:54.564Z,58.08
2022-08-03T08:18:26.734Z,57.08
2022-08-03T08:21:19.390Z,56.57
2022-08-03T08:24:18.058Z,55.26
2022-08-03T08:27:12.553Z,57.25
2022-08-03T08:30:11.478Z,54.74
2022-08-03T08:33:05.153Z,55.61
2022-08-03T08:35:57.608Z,53.71
2022-08-03T08:38:50.216Z,53.96
2022-08-03T08:41:45.937Z,53.68
2022-08-03T08:44:39.597Z,52.04
2022-08-03T08:47:51.159Z,49.97
2022-08-03T08:50:29.788Z,52.16
2022-08-03T08:53:17.501Z,49.28
2022-08-03T08:56:10.693Z,47.42
2022-08-03T08:59:04.168Z,48.46
2022-08-03T09:02:00.146Z,47.74
2022-08-03T09:04:52.730Z,46.25
2022-08-03T09:07:45.807Z,48.04
2022-08-03T09:10:38.629Z,46.96
2022-08-03T09:13:31.626Z,47.40
2022-08-03T09:16:24.675Z,47.33
2022-08-03T09:19:18.172Z,46.98
2022-08-03T09:22:10.967Z,46.25
2022-08-03T09:25:24.199Z,46.66
2022-08-03T09:28:58.050Z,46.05
2022-08-03T09:31:37.066Z,45.48
2022-08-03T09:34:29.267Z,46.96
2022-08-03T09:37:28.075Z,44.16
2022-08-03T09:40:40.607Z,45.08
2022-08-03T09:43:48.475Z,41.23
2022-08-03T09:46:52.981Z,42.36
2022-08-03T09:49:57.319Z,41.50
2022-08-03T09:52:52.850Z,40.49
2022-08-03T09:56:36.493Z,39.50
2022-08-03T09:59:05.767Z,41.12
2022-08-03T10:02:00.078Z,41.65
2022-08-03T10:04:53.728Z,40.87
2022-08-03T10:07:47.033Z,40.79
2022-08-03T10:10:45.784Z,40.31
2022-08-03T10:13:39.453Z,41.18
2022-08-03T10:16:37.014Z,40.02
2022-08-03T10:19:29.167Z,40.46
2022-08-03T10:22:23.604Z,39.25
2022-08-03T10:25:17.537Z,39.92
2022-08-03T10:28:14.514Z,39.09
2022-08-03T10:31:08.556Z,38.31
2022-08-03T10:34:03.382Z,38.93
2022-08-03T10:37:01.316Z,37.81
2022-08-03T10:39:57.128Z,39.03
2022-08-03T10:42:50.934Z,40.35
2022-08-03T10:45:35.488Z,40.15
2022-08-03T10:48:18.922Z,40.47
2022-08-03T10:51:12.684Z,40.17
2022-08-03T10:54:05.239Z,39.53
2022-08-03T10:57:20.401Z,41.17
2022-08-03T11:00:06.474Z,41.47
2022-08-03T11:03:09.027Z,41.42
2022-08-03T11:06:19.182Z,41.53
2022-08-03T11:09:21.592Z,42.16
2022-08-03T11:12:29.924Z,41.91
2022-08-03T11:15:36.301Z,42.56
2022-08-03T11:18:28.977Z,40.56
2022-08-03T11:21:21.189Z,41.43
2022-08-03T11:24:33.182Z,40.56
2022-08-03T11:27:27.059Z,40.49
2022-08-03T11:30:27.583Z,40.17
2022-08-03T11:33:32.007Z,40.78
2022-08-03T11:36:32.345Z,38.01
2022-08-03T11:39:38.776Z,37.84
2022-08-03T11:42:47.422Z,36.85
2022-08-03T11:45:40.147Z,37.82
2022-08-03T11:48:20.696Z,37.10
2022-08-03T11:51:25.604Z,38.04
2022-08-03T11:54:23.048Z,37.79
2022-08-03T11:59:01.383Z,37.77
2022-08-03T12:00:41.533Z,37.84
2022-08-03T12:03:36.367Z,38.00
2022-08-03T12:06:28.662Z,37.74
2022-08-03T12:09:21.173Z,38.05
2022-08-03T12:12:06.838Z,37.41
2022-08-03T12:14:59.482Z,37.69
2022-08-03T12:17:55.983Z,37.35
2022-08-03T12:20:51.162Z,37.89
2022-08-03T12:23:37.704Z,38.28
2022-08-03T12:26:32.010Z,38.32
2022-08-03T12:29:25.955Z,38.80
2022-08-03T12:32:19.269Z,38.13
2022-08-03T12:35:12.218Z,38.47
2022-08-03T12:38:04.777Z,37.74
2022-08-03T12:41:13.781Z,38.20
2022-08-03T12:44:08.072Z,38.41
2022-08-03T12:47:00.647Z,38.46
2022-08-03T12:49:54.324Z,38.73
2022-08-03T12:52:45.226Z,38.86
2022-08-03T12:55:57.454Z,39.27
2022-08-03T12:58:51.572Z,39.56
2022-08-03T13:01:54.790Z,39.57
2022-08-03T13:04:40.552Z,39.39
2022-08-03T13:07:45.782Z,39.69
2022-08-03T13:10:38.339Z,40.34
2022-08-03T13:13:44.172Z,39.41
2022-08-03T13:16:36.430Z,39.71
2022-08-03T13:19:29.957Z,38.76
2022-08-03T13:22:23.687Z,37.93
2022-08-03T13:25:07.084Z,38.82
2022-08-03T13:28:03.219Z,38.45
2022-08-03T13:30:58.381Z,37.70
2022-08-03T13:33:50.528Z,38.44
2022-08-03T13:37:07.574Z,37.94
2022-08-03T13:39:59.443Z,38.93
2022-08-03T13:42:52.338Z,38.54
2022-08-03T13:45:49.390Z,37.21
2022-08-03T13:48:43.601Z,37.65
2022-08-03T13:51:36.040Z,37.32
2022-08-03T13:54:27.183Z,37.36
2022-08-03T13:58:04.604Z,36.71
2022-08-03T14:00:32.856Z,37.36
2022-08-03T14:03:17.685Z,37.18
2022-08-03T14:06:10.024Z,37.42
2022-08-03T14:09:02.717Z,38.14
2022-08-03T14:12:07.802Z,38.35
2022-08-03T14:15:01.523Z,38.64
2022-08-03T14:17:54.371Z,40.16
2022-08-03T14:20:54.268Z,40.77
2022-08-03T14:23:48.757Z,41.93
2022-08-03T14:26:40.909Z,42.74
2022-08-03T14:29:33.131Z,42.87
2022-08-03T14:32:13.790Z,42.55
2022-08-03T14:35:07.243Z,42.77
2022-08-03T14:37:59.278Z,42.81
2022-08-03T14:40:52.126Z,41.19
2022-08-03T14:44:01.579Z,39.85
2022-08-03T14:46:54.437Z,39.84
2022-08-03T14:50:37.035Z,41.42
2022-08-03T14:52:58.570Z,43.18
2022-08-03T14:55:51.921Z,42.56
2022-08-03T14:58:44.015Z,42.30
2022-08-03T15:02:04.342Z,41.93
2022-08-03T15:04:48.417Z,41.80
2022-08-03T15:07:40.627Z,40.83
2022-08-03T15:10:15.284Z,40.06
2022-08-03T15:13:07.316Z,40.33
2022-08-03T15:15:59.625Z,40.25
2022-08-03T15:18:51.811Z,39.69
2022-08-03T15:21:46.513Z,40.14
2022-08-03T15:24:39.645Z,39.15
2022-08-03T15:27:31.706Z,38.92
2022-08-03T15:30:23.919Z,38.98
2022-08-03T15:33:16.177Z,38.67
2022-08-03T15:36:01.287Z,38.38
2022-08-03T15:38:54.750Z,37.92
2022-08-03T15:41:39.594Z,37.84
2022-08-03T15:44:32.437Z,37.57
2022-08-03T15:47:24.639Z,38.29
2022-08-03T15:50:09.874Z,37.45
2022-08-03T15:53:02.150Z,37.63
2022-08-03T15:55:54.555Z,37.62
2022-08-03T15:59:09.483Z,37.45
2022-08-03T16:01:59.162Z,37.29
2022-08-03T16:04:52.319Z,37.72
2022-08-03T16:08:04.004Z,38.21
2022-08-03T16:10:57.135Z,38.58
2022-08-03T16:14:13.691Z,38.73
2022-08-03T16:17:02.471Z,38.63
2022-08-03T16:19:55.374Z,39.25
2022-08-03T16:22:50.882Z,39.45
2022-08-03T16:25:49.367Z,38.93
2022-08-03T16:28:41.623Z,38.04
2022-08-03T16:31:33.945Z,38.14
2022-08-03T16:34:26.108Z,37.70
2022-08-03T16:37:37.075Z,36.78
2022-08-03T16:40:22.793Z,37.03
2022-08-03T16:43:17.941Z,35.97
2022-08-03T16:46:11.194Z,35.73
2022-08-03T16:49:03.333Z,34.76
2022-08-03T16:51:55.887Z,35.04
2022-08-03T16:54:52.984Z,34.37
2022-08-03T16:57:59.710Z,33.93
2022-08-03T17:00:51.971Z,33.38
2022-08-03T17:04:01.819Z,33.42
2022-08-03T17:06:56.853Z,33.47
2022-08-03T17:09:38.774Z,33.86
2022-08-03T17:12:22.252Z,33.79
2022-08-03T17:15:18.819Z,33.56
2022-08-03T17:18:17.951Z,34.87
2022-08-03T17:21:16.965Z,34.89
2022-08-03T17:24:19.744Z,35.08
2022-08-03T17:28:41.834Z,36.96
2022-08-03T17:30:21.006Z,38.85
2022-08-03T17:33:20.219Z,40.58
2022-08-03T17:36:08.022Z,40.80
2022-08-03T17:39:00.912Z,42.32
2022-08-03T17:41:55.544Z,42.31
2022-08-03T17:44:49.097Z,43.77
2022-08-03T17:47:43.465Z,44.49
2022-08-03T17:50:43.794Z,46.36
2022-08-03T17:53:44.478Z,45.66
2022-08-03T17:56:44.635Z,46.53
2022-08-03T17:59:50.847Z,48.20
2022-08-03T18:02:47.596Z,49.17
2022-08-03T18:06:10.515Z,50.43
2022-08-03T18:08:55.921Z,52.09
2022-08-03T18:11:44.523Z,53.38
2022-08-03T18:14:57.140Z,53.37
2022-08-03T18:17:55.411Z,54.08
2022-08-03T18:20:54.730Z,54.32
2022-08-03T18:23:51.079Z,55.68
2022-08-03T18:26:48.479Z,56.70
2022-08-03T18:29:36.959Z,57.42
2022-08-03T18:32:31.095Z,57.76
2022-08-03T18:35:26.850Z,58.61
2022-08-03T18:38:42.838Z,58.83
2022-08-03T18:41:44.588Z,59.88
2022-08-03T18:44:54.193Z,64.10
2022-08-03T18:48:00.081Z,66.76
2022-08-03T18:51:01.004Z,64.63
2022-08-03T18:54:03.865Z,62.43
2022-08-03T18:57:01.064Z,58.29
2022-08-03T19:00:00.280Z,56.26
2022-08-03T19:03:02.529Z,57.30
2022-08-03T19:06:08.576Z,58.08
2022-08-03T19:09:19.603Z,59.15
2022-08-03T19:12:30.949Z,64.14
2022-08-03T19:15:37.100Z,64.78
2022-08-03T19:18:43.880Z,61.87
2022-08-03T19:21:26.415Z,58.39
2022-08-03T19:24:23.381Z,56.79
2022-08-03T19:27:27.150Z,57.65
2022-08-03T19:30:39.151Z,58.88
2022-08-03T19:33:55.721Z,59.45
2022-08-03T19:36:49.765Z,66.11
2022-08-03T19:39:43.500Z,65.37
2022-08-03T19:42:41.689Z,62.78
2022-08-03T19:46:04.832Z,61.07
2022-08-03T19:48:58.148Z,57.62
2022-08-03T19:52:02.950Z,56.76
2022-08-03T19:55:02.336Z,57.70
2022-08-03T19:57:57.338Z,58.98
2022-08-03T20:00:49.728Z,63.38
2022-08-03T20:03:43.466Z,64.44
2022-08-03T20:06:36.222Z,61.92
2022-08-03T20:09:30.500Z,60.85
2022-08-03T20:12:13.365Z,58.17
2022-08-03T20:15:07.263Z,57.12
2022-08-03T20:17:56.546Z,58.15
2022-08-03T20:20:55.801Z,58.99
2022-08-03T20:24:00.015Z,63.32
2022-08-03T20:26:57.962Z,64.59
2022-08-03T20:30:04.979Z,62.87
2022-08-03T20:32:31.453Z,61.48
2022-08-03T20:35:24.741Z,60.60
2022-08-03T20:38:17.605Z,57.85
2022-08-03T20:41:12.622Z,57.34
2022-08-03T20:44:05.463Z,58.51
2022-08-03T20:47:00.703Z,59.59
2022-08-03T20:49:53.911Z,64.50
2022-08-03T20:52:49.718Z,65.02
2022-08-03T20:55:47.641Z,63.80
2022-08-03T20:58:50.434Z,62.11
2022-08-03T21:01:44.367Z,61.17
2022-08-03T21:04:37.085Z,58.27
2022-08-03T21:08:03.948Z,57.68
2022-08-03T21:10:52.691Z,58.36
2022-08-03T21:13:52.206Z,59.88
2022-08-03T21:16:48.749Z,64.73
2022-08-03T21:19:51.871Z,65.92
2022-08-03T21:22:47.541Z,64.00
2022-08-03T21:25:42.799Z,62.59
2022-08-03T21:28:36.628Z,61.27
2022-08-03T21:31:29.065Z,60.78
2022-08-03T21:34:12.025Z,59.98
2022-08-03T21:36:54.575Z,57.56
2022-08-03T21:39:50.710Z,57.06
2022-08-03T21:42:45.624Z,58.26
2022-08-03T21:45:45.672Z,59.99
2022-08-03T21:48:41.675Z,64.44
2022-08-03T21:51:36.556Z,66.09
2022-08-03T21:54:34.832Z,63.98
2022-08-03T21:57:30.531Z,62.68
2022-08-03T22:00:24.337Z,61.65
2022-08-03T22:03:17.946Z,60.78
2022-08-03T22:06:19.614Z,60.06
2022-08-03T22:09:12.853Z,57.55
2022-08-03T22:12:05.905Z,57.33
2022-08-03T22:15:01.971Z,58.70
2022-08-03T22:17:55.517Z,62.95
2022-08-03T22:20:53.179Z,64.89
2022-08-03T22:23:48.271Z,62.65
2022-08-03T22:27:05.053Z,61.77
2022-08-03T22:29:58.319Z,60.69
2022-08-03T22:32:44.649Z,60.10
2022-08-03T22:35:47.450Z,57.80
2022-08-03T22:38:42.401Z,56.94
2022-08-03T22:41:34.777Z,58.63
2022-08-03T22:44:27.455Z,60.00
2022-08-03T22:47:23.065Z,63.95
2022-08-03T22:50:31.624Z,65.94
2022-08-03T22:53:10.977Z,65.09
2022-08-03T22:56:04.734Z,62.94
2022-08-03T22:58:54.063Z,61.68
2022-08-03T23:01:48.413Z,60.77
2022-08-03T23:04:42.397Z,60.09
2022-08-03T23:07:38.067Z,57.51
2022-08-03T23:10:36.867Z,57.53
2022-08-03T23:13:32.429Z,58.74
2022-08-03T23:16:29.345Z,63.65
2022-08-03T23:19:28.176Z,64.92
2022-08-03T23:22:27.686Z,63.50
2022-08-03T23:25:22.811Z,62.51
2022-08-03T23:28:05.660Z,61.22
2022-08-03T23:30:59.866Z,60.78
2022-08-03T23:34:16.474Z,58.21
2022-08-03T23:37:10.795Z,57.44
2022-08-03T23:40:04.865Z,59.00
2022-08-03T23:42:59.096Z,63.73
2022-08-03T23:45:53.096Z,64.99
2022-08-03T23:48:48.414Z,62.73
2022-08-03T23:51:50.801Z,61.64
2022-08-03T23:54:54.061Z,60.84
2022-08-03T23:58:02.163Z,58.09
